sensor_id;sensor_type;location;lat;lon;timestamp;P1;durP1;ratioP1;P2;durP2;ratioP2
18983;SDS011;9626;52.552;13.436;2023-02-28T00:01:26;9.40;;;4.93;;
18983;SDS011;9626;52.552;13.436;2023-02-28T00:03:52;9.00;;;4.53;;
18983;SDS011;9626;52.552;13.436;2023-02-28T00:06:18;7.30;;;4.30;;
18983;SDS011;9626;52.552;13.436;2023-02-28T00:08:45;8.03;;;4.27;;
18983;SDS011;9626;52.552;13.436;2023-02-28T00:11:12;9.17;;;4.27;;
18983;SDS011;9626;52.552;13.436;2023-02-28T00:13:40;9.60;;;4.73;;
18983;SDS011;9626;52.552;13.436;2023-02-28T00:16:13;7.80;;;4.07;;
18983;SDS011;9626;52.552;13.436;2023-02-28T00:18:44;7.57;;;4.17;;
18983;SDS011;9626;52.552;13.436;2023-02-28T00:21:10;8.77;;;4.87;;
18983;SDS011;9626;52.552;13.436;2023-02-28T00:23:36;11.07;;;4.67;;
18983;SDS011;9626;52.552;13.436;2023-02-28T00:26:02;8.80;;;4.10;;
18983;SDS011;9626;52.552;13.436;2023-02-28T00:28:28;8.20;;;3.70;;
18983;SDS011;9626;52.552;13.436;2023-02-28T00:30:54;7.40;;;3.63;;
18983;SDS011;9626;52.552;13.436;2023-02-28T00:33:20;6.07;;;3.30;;
18983;SDS011;9626;52.552;13.436;2023-02-28T00:35:46;5.17;;;3.10;;
18983;SDS011;9626;52.552;13.436;2023-02-28T00:38:14;5.17;;;3.07;;
18983;SDS011;9626;52.552;13.436;2023-02-28T00:40:41;6.30;;;3.10;;
18983;SDS011;9626;52.552;13.436;2023-02-28T00:43:07;6.57;;;3.10;;
18983;SDS011;9626;52.552;13.436;2023-02-28T00:45:33;4.20;;;2.80;;
18983;SDS011;9626;52.552;13.436;2023-02-28T00:47:59;6.63;;;3.23;;
18983;SDS011;9626;52.552;13.436;2023-02-28T00:50:25;5.90;;;3.07;;
18983;SDS011;9626;52.552;13.436;2023-02-28T00:52:51;5.50;;;3.00;;
18983;SDS011;9626;52.552;13.436;2023-02-28T00:55:17;4.90;;;3.17;;
18983;SDS011;9626;52.552;13.436;2023-02-28T00:57:44;6.00;;;2.93;;
18983;SDS011;9626;52.552;13.436;2023-02-28T01:00:10;6.57;;;3.50;;
18983;SDS011;9626;52.552;13.436;2023-02-28T01:02:36;6.50;;;3.17;;
18983;SDS011;9626;52.552;13.436;2023-02-28T01:05:02;5.60;;;3.13;;
18983;SDS011;9626;52.552;13.436;2023-02-28T01:07:29;7.13;;;3.10;;
18983;SDS011;9626;52.552;13.436;2023-02-28T01:09:55;4.63;;;2.97;;
18983;SDS011;9626;52.552;13.436;2023-02-28T01:12:21;4.97;;;3.17;;
18983;SDS011;9626;52.552;13.436;2023-02-28T01:14:48;6.53;;;3.50;;
18983;SDS011;9626;52.552;13.436;2023-02-28T01:17:14;5.80;;;3.47;;
18983;SDS011;9626;52.552;13.436;2023-02-28T01:19:40;7.20;;;3.93;;
18983;SDS011;9626;52.552;13.436;2023-02-28T01:22:06;6.10;;;3.37;;
18983;SDS011;9626;52.552;13.436;2023-02-28T01:24:32;6.10;;;3.20;;
18983;SDS011;9626;52.552;13.436;2023-02-28T01:26:58;5.87;;;3.47;;
18983;SDS011;9626;52.552;13.436;2023-02-28T01:29:24;6.43;;;3.13;;
18983;SDS011;9626;52.552;13.436;2023-02-28T01:31:50;5.27;;;3.27;;
18983;SDS011;9626;52.552;13.436;2023-02-28T01:34:16;5.70;;;3.60;;
18983;SDS011;9626;52.552;13.436;2023-02-28T01:36:44;7.67;;;3.83;;
18983;SDS011;9626;52.552;13.436;2023-02-28T01:39:11;6.20;;;3.43;;
18983;SDS011;9626;52.552;13.436;2023-02-28T01:41:38;6.20;;;3.57;;
18983;SDS011;9626;52.552;13.436;2023-02-28T01:44:06;6.40;;;3.83;;
18983;SDS011;9626;52.552;13.436;2023-02-28T01:46:52;5.90;;;3.40;;
18983;SDS011;9626;52.552;13.436;2023-02-28T01:49:18;6.27;;;3.87;;
18983;SDS011;9626;52.552;13.436;2023-02-28T01:51:46;6.30;;;3.70;;
18983;SDS011;9626;52.552;13.436;2023-02-28T01:54:21;5.83;;;3.20;;
18983;SDS011;9626;52.552;13.436;2023-02-28T01:56:59;6.23;;;3.73;;
18983;SDS011;9626;52.552;13.436;2023-02-28T02:02:17;6.90;;;3.40;;
18983;SDS011;9626;52.552;13.436;2023-02-28T02:04:50;5.93;;;3.47;;
18983;SDS011;9626;52.552;13.436;2023-02-28T02:07:33;8.33;;;3.90;;
18983;SDS011;9626;52.552;13.436;2023-02-28T02:10:06;6.43;;;3.83;;
18983;SDS011;9626;52.552;13.436;2023-02-28T02:15:24;6.23;;;3.60;;
18983;SDS011;9626;52.552;13.436;2023-02-28T02:17:59;6.20;;;3.37;;
18983;SDS011;9626;52.552;13.436;2023-02-28T02:20:52;6.80;;;3.80;;
18983;SDS011;9626;52.552;13.436;2023-02-28T02:40:25;7.40;;;3.97;;
18983;SDS011;9626;52.552;13.436;2023-02-28T02:43:01;6.87;;;4.20;;
18983;SDS011;9626;52.552;13.436;2023-02-28T02:45:37;7.93;;;3.97;;
18983;SDS011;9626;52.552;13.436;2023-02-28T02:48:12;6.70;;;3.57;;
18983;SDS011;9626;52.552;13.436;2023-02-28T02:50:46;9.07;;;3.90;;
18983;SDS011;9626;52.552;13.436;2023-02-28T02:53:17;6.67;;;3.73;;
18983;SDS011;9626;52.552;13.436;2023-02-28T02:55:47;9.67;;;3.93;;
18983;SDS011;9626;52.552;13.436;2023-02-28T02:58:21;7.90;;;4.47;;
18983;SDS011;9626;52.552;13.436;2023-02-28T03:00:53;6.00;;;3.73;;
18983;SDS011;9626;52.552;13.436;2023-02-28T03:03:23;6.80;;;4.17;;
18983;SDS011;9626;52.552;13.436;2023-02-28T03:05:57;8.37;;;3.97;;
18983;SDS011;9626;52.552;13.436;2023-02-28T03:08:25;8.20;;;4.67;;
18983;SDS011;9626;52.552;13.436;2023-02-28T03:10:56;8.30;;;4.43;;
18983;SDS011;9626;52.552;13.436;2023-02-28T03:13:38;6.77;;;4.00;;
18983;SDS011;9626;52.552;13.436;2023-02-28T03:16:28;8.50;;;3.90;;
18983;SDS011;9626;52.552;13.436;2023-02-28T03:22:08;8.87;;;4.10;;
18983;SDS011;9626;52.552;13.436;2023-02-28T03:24:43;8.90;;;4.30;;
18983;SDS011;9626;52.552;13.436;2023-02-28T03:27:12;12.17;;;4.20;;
18983;SDS011;9626;52.552;13.436;2023-02-28T03:29:43;8.57;;;4.67;;
18983;SDS011;9626;52.552;13.436;2023-02-28T03:32:21;9.23;;;4.80;;
18983;SDS011;9626;52.552;13.436;2023-02-28T03:34:57;8.23;;;4.30;;
18983;SDS011;9626;52.552;13.436;2023-02-28T03:37:31;8.37;;;4.97;;
18983;SDS011;9626;52.552;13.436;2023-02-28T03:40:06;8.83;;;4.67;;
18983;SDS011;9626;52.552;13.436;2023-02-28T03:42:38;8.13;;;4.50;;
18983;SDS011;9626;52.552;13.436;2023-02-28T03:45:15;7.30;;;4.47;;
18983;SDS011;9626;52.552;13.436;2023-02-28T03:47:48;8.13;;;4.40;;
18983;SDS011;9626;52.552;13.436;2023-02-28T03:52:49;6.40;;;4.33;;
18983;SDS011;9626;52.552;13.436;2023-02-28T03:55:28;7.80;;;4.77;;
18983;SDS011;9626;52.552;13.436;2023-02-28T04:00:46;7.50;;;4.07;;
18983;SDS011;9626;52.552;13.436;2023-02-28T04:03:16;7.47;;;4.30;;
18983;SDS011;9626;52.552;13.436;2023-02-28T04:05:50;7.17;;;4.53;;
18983;SDS011;9626;52.552;13.436;2023-02-28T04:08:19;8.33;;;4.37;;
18983;SDS011;9626;52.552;13.436;2023-02-28T04:10:47;8.90;;;4.70;;
18983;SDS011;9626;52.552;13.436;2023-02-28T04:13:20;7.83;;;4.47;;
18983;SDS011;9626;52.552;13.436;2023-02-28T04:15:46;9.17;;;4.40;;
18983;SDS011;9626;52.552;13.436;2023-02-28T04:18:12;6.67;;;4.30;;
18983;SDS011;9626;52.552;13.436;2023-02-28T04:20:38;8.73;;;4.60;;
18983;SDS011;9626;52.552;13.436;2023-02-28T04:23:04;9.20;;;4.60;;
18983;SDS011;9626;52.552;13.436;2023-02-28T04:25:30;7.33;;;4.60;;
18983;SDS011;9626;52.552;13.436;2023-02-28T04:27:56;8.23;;;4.70;;
18983;SDS011;9626;52.552;13.436;2023-02-28T04:30:22;8.23;;;4.70;;
18983;SDS011;9626;52.552;13.436;2023-02-28T04:32:48;8.37;;;4.40;;
18983;SDS011;9626;52.552;13.436;2023-02-28T04:35:14;10.50;;;4.60;;
18983;SDS011;9626;52.552;13.436;2023-02-28T04:37:41;10.10;;;4.70;;
18983;SDS011;9626;52.552;13.436;2023-02-28T04:40:07;7.70;;;4.97;;
18983;SDS011;9626;52.552;13.436;2023-02-28T04:42:34;8.63;;;4.60;;
18983;SDS011;9626;52.552;13.436;2023-02-28T04:45:02;8.73;;;4.83;;
18983;SDS011;9626;52.552;13.436;2023-02-28T04:47:29;7.00;;;4.40;;
18983;SDS011;9626;52.552;13.436;2023-02-28T04:49:55;10.20;;;5.13;;
18983;SDS011;9626;52.552;13.436;2023-02-28T04:52:21;11.07;;;4.77;;
18983;SDS011;9626;52.552;13.436;2023-02-28T04:54:47;10.97;;;5.60;;
18983;SDS011;9626;52.552;13.436;2023-02-28T04:57:13;11.57;;;5.70;;
18983;SDS011;9626;52.552;13.436;2023-02-28T04:59:39;12.30;;;6.10;;
18983;SDS011;9626;52.552;13.436;2023-02-28T05:02:05;13.87;;;6.47;;
18983;SDS011;9626;52.552;13.436;2023-02-28T05:04:33;16.70;;;6.90;;
18983;SDS011;9626;52.552;13.436;2023-02-28T05:07:00;11.20;;;6.67;;
18983;SDS011;9626;52.552;13.436;2023-02-28T05:09:26;12.07;;;6.90;;
18983;SDS011;9626;52.552;13.436;2023-02-28T05:11:53;13.07;;;6.97;;
18983;SDS011;9626;52.552;13.436;2023-02-28T05:14:20;12.00;;;6.27;;
18983;SDS011;9626;52.552;13.436;2023-02-28T05:16:46;14.63;;;6.73;;
18983;SDS011;9626;52.552;13.436;2023-02-28T05:19:13;11.50;;;6.77;;
18983;SDS011;9626;52.552;13.436;2023-02-28T05:21:39;12.90;;;6.77;;
18983;SDS011;9626;52.552;13.436;2023-02-28T05:24:20;12.57;;;8.00;;
18983;SDS011;9626;52.552;13.436;2023-02-28T05:26:48;17.40;;;7.53;;
18983;SDS011;9626;52.552;13.436;2023-02-28T05:29:16;12.97;;;6.90;;
18983;SDS011;9626;52.552;13.436;2023-02-28T05:31:42;15.50;;;7.63;;
18983;SDS011;9626;52.552;13.436;2023-02-28T05:34:08;14.57;;;7.63;;
18983;SDS011;9626;52.552;13.436;2023-02-28T05:36:36;15.60;;;7.13;;
18983;SDS011;9626;52.552;13.436;2023-02-28T05:39:04;15.23;;;7.10;;
18983;SDS011;9626;52.552;13.436;2023-02-28T05:41:31;18.03;;;7.10;;
18983;SDS011;9626;52.552;13.436;2023-02-28T05:43:57;14.37;;;7.30;;
18983;SDS011;9626;52.552;13.436;2023-02-28T05:46:25;19.33;;;10.57;;
18983;SDS011;9626;52.552;13.436;2023-02-28T05:48:51;22.00;;;11.57;;
18983;SDS011;9626;52.552;13.436;2023-02-28T05:51:17;23.17;;;13.07;;
18983;SDS011;9626;52.552;13.436;2023-02-28T05:53:43;21.97;;;12.17;;
18983;SDS011;9626;52.552;13.436;2023-02-28T05:56:09;22.90;;;12.40;;
18983;SDS011;9626;52.552;13.436;2023-02-28T05:58:36;21.63;;;11.50;;
18983;SDS011;9626;52.552;13.436;2023-02-28T06:01:19;17.43;;;10.20;;
18983;SDS011;9626;52.552;13.436;2023-02-28T06:03:47;16.03;;;8.73;;
18983;SDS011;9626;52.552;13.436;2023-02-28T06:06:13;16.47;;;9.20;;
18983;SDS011;9626;52.552;13.436;2023-02-28T06:08:39;20.00;;;8.93;;
18983;SDS011;9626;52.552;13.436;2023-02-28T06:11:06;14.63;;;9.00;;
18983;SDS011;9626;52.552;13.436;2023-02-28T06:13:38;14.03;;;8.90;;
18983;SDS011;9626;52.552;13.436;2023-02-28T06:16:04;13.40;;;8.23;;
18983;SDS011;9626;52.552;13.436;2023-02-28T06:18:30;15.33;;;7.73;;
18983;SDS011;9626;52.552;13.436;2023-02-28T06:20:56;15.43;;;7.70;;
18983;SDS011;9626;52.552;13.436;2023-02-28T06:23:22;14.07;;;8.47;;
18983;SDS011;9626;52.552;13.436;2023-02-28T06:25:48;14.27;;;8.13;;
18983;SDS011;9626;52.552;13.436;2023-02-28T06:28:15;16.77;;;8.50;;
18983;SDS011;9626;52.552;13.436;2023-02-28T06:30:41;14.07;;;7.83;;
18983;SDS011;9626;52.552;13.436;2023-02-28T06:33:07;15.00;;;8.63;;
18983;SDS011;9626;52.552;13.436;2023-02-28T06:35:33;18.83;;;10.47;;
18983;SDS011;9626;52.552;13.436;2023-02-28T06:38:00;17.07;;;9.73;;
18983;SDS011;9626;52.552;13.436;2023-02-28T06:40:26;19.37;;;10.30;;
18983;SDS011;9626;52.552;13.436;2023-02-28T06:42:52;16.97;;;10.20;;
18983;SDS011;9626;52.552;13.436;2023-02-28T06:45:18;21.43;;;11.77;;
18983;SDS011;9626;52.552;13.436;2023-02-28T06:47:44;16.93;;;11.27;;
18983;SDS011;9626;52.552;13.436;2023-02-28T06:50:11;21.50;;;11.07;;
18983;SDS011;9626;52.552;13.436;2023-02-28T06:52:38;23.53;;;11.50;;
18983;SDS011;9626;52.552;13.436;2023-02-28T06:55:06;22.67;;;11.90;;
18983;SDS011;9626;52.552;13.436;2023-02-28T06:57:33;19.00;;;10.60;;
18983;SDS011;9626;52.552;13.436;2023-02-28T07:00:01;21.90;;;10.77;;
18983;SDS011;9626;52.552;13.436;2023-02-28T07:02:30;23.20;;;10.60;;
18983;SDS011;9626;52.552;13.436;2023-02-28T07:04:57;19.33;;;10.07;;
18983;SDS011;9626;52.552;13.436;2023-02-28T07:07:23;17.17;;;9.93;;
18983;SDS011;9626;52.552;13.436;2023-02-28T07:09:49;17.50;;;10.13;;
18983;SDS011;9626;52.552;13.436;2023-02-28T07:12:15;15.23;;;8.73;;
18983;SDS011;9626;52.552;13.436;2023-02-28T07:14:42;16.53;;;9.10;;
18983;SDS011;9626;52.552;13.436;2023-02-28T07:17:08;19.73;;;8.97;;
18983;SDS011;9626;52.552;13.436;2023-02-28T07:19:38;21.03;;;10.00;;
18983;SDS011;9626;52.552;13.436;2023-02-28T07:22:05;23.13;;;10.77;;
18983;SDS011;9626;52.552;13.436;2023-02-28T07:24:31;22.20;;;9.77;;
18983;SDS011;9626;52.552;13.436;2023-02-28T07:26:58;26.73;;;10.70;;
18983;SDS011;9626;52.552;13.436;2023-02-28T07:29:25;29.27;;;11.93;;
18983;SDS011;9626;52.552;13.436;2023-02-28T07:31:51;24.83;;;12.27;;
18983;SDS011;9626;52.552;13.436;2023-02-28T07:34:21;30.43;;;12.63;;
18983;SDS011;9626;52.552;13.436;2023-02-28T07:36:48;23.73;;;12.60;;
18983;SDS011;9626;52.552;13.436;2023-02-28T07:39:14;29.23;;;11.83;;
18983;SDS011;9626;52.552;13.436;2023-02-28T07:41:40;28.13;;;12.67;;
18983;SDS011;9626;52.552;13.436;2023-02-28T07:44:09;27.67;;;12.03;;
18983;SDS011;9626;52.552;13.436;2023-02-28T07:46:36;27.33;;;10.90;;
18983;SDS011;9626;52.552;13.436;2023-02-28T07:49:02;25.10;;;11.50;;
18983;SDS011;9626;52.552;13.436;2023-02-28T07:51:29;26.50;;;12.60;;
18983;SDS011;9626;52.552;13.436;2023-02-28T07:53:55;24.53;;;11.87;;
18983;SDS011;9626;52.552;13.436;2023-02-28T07:56:22;26.53;;;11.77;;
18983;SDS011;9626;52.552;13.436;2023-02-28T07:58:48;22.90;;;11.97;;
18983;SDS011;9626;52.552;13.436;2023-02-28T08:01:14;28.53;;;14.17;;
18983;SDS011;9626;52.552;13.436;2023-02-28T08:03:40;19.77;;;11.73;;
18983;SDS011;9626;52.552;13.436;2023-02-28T08:06:08;21.00;;;10.97;;
18983;SDS011;9626;52.552;13.436;2023-02-28T08:08:40;18.73;;;10.37;;
18983;SDS011;9626;52.552;13.436;2023-02-28T08:11:06;23.80;;;11.30;;
18983;SDS011;9626;52.552;13.436;2023-02-28T08:13:33;16.97;;;10.03;;
18983;SDS011;9626;52.552;13.436;2023-02-28T08:16:00;20.20;;;10.87;;
18983;SDS011;9626;52.552;13.436;2023-02-28T08:18:28;17.83;;;9.40;;
18983;SDS011;9626;52.552;13.436;2023-02-28T08:20:54;11.97;;;7.27;;
18983;SDS011;9626;52.552;13.436;2023-02-28T08:23:20;14.87;;;5.70;;
18983;SDS011;9626;52.552;13.436;2023-02-28T08:25:52;7.00;;;4.20;;
18983;SDS011;9626;52.552;13.436;2023-02-28T08:28:22;7.73;;;4.70;;
18983;SDS011;9626;52.552;13.436;2023-02-28T08:30:48;8.23;;;4.93;;
18983;SDS011;9626;52.552;13.436;2023-02-28T08:33:14;7.33;;;4.97;;
18983;SDS011;9626;52.552;13.436;2023-02-28T08:35:40;9.97;;;5.03;;
18983;SDS011;9626;52.552;13.436;2023-02-28T08:38:06;7.13;;;4.37;;
18983;SDS011;9626;52.552;13.436;2023-02-28T08:40:32;7.40;;;4.43;;
18983;SDS011;9626;52.552;13.436;2023-02-28T08:42:58;5.47;;;3.10;;
18983;SDS011;9626;52.552;13.436;2023-02-28T08:45:25;7.07;;;3.60;;
18983;SDS011;9626;52.552;13.436;2023-02-28T08:47:51;4.63;;;2.50;;
18983;SDS011;9626;52.552;13.436;2023-02-28T08:50:20;7.53;;;2.63;;
18983;SDS011;9626;52.552;13.436;2023-02-28T08:52:47;6.57;;;3.00;;
18983;SDS011;9626;52.552;13.436;2023-02-28T08:55:13;4.07;;;2.60;;
18983;SDS011;9626;52.552;13.436;2023-02-28T08:57:39;4.03;;;2.40;;
18983;SDS011;9626;52.552;13.436;2023-02-28T09:00:05;4.07;;;2.20;;
18983;SDS011;9626;52.552;13.436;2023-02-28T09:02:33;3.73;;;2.17;;
18983;SDS011;9626;52.552;13.436;2023-02-28T09:04:59;8.10;;;2.27;;
18983;SDS011;9626;52.552;13.436;2023-02-28T09:07:25;4.37;;;2.40;;
18983;SDS011;9626;52.552;13.436;2023-02-28T09:09:51;6.80;;;2.20;;
18983;SDS011;9626;52.552;13.436;2023-02-28T09:12:24;7.13;;;3.43;;
18983;SDS011;9626;52.552;13.436;2023-02-28T09:14:52;3.87;;;2.27;;
18983;SDS011;9626;52.552;13.436;2023-02-28T09:17:18;8.60;;;2.10;;
18983;SDS011;9626;52.552;13.436;2023-02-28T09:19:47;4.87;;;2.60;;
18983;SDS011;9626;52.552;13.436;2023-02-28T09:22:14;3.63;;;2.60;;
18983;SDS011;9626;52.552;13.436;2023-02-28T09:24:40;4.97;;;2.80;;
18983;SDS011;9626;52.552;13.436;2023-02-28T09:27:06;3.30;;;2.20;;
18983;SDS011;9626;52.552;13.436;2023-02-28T09:29:32;11.67;;;6.40;;
18983;SDS011;9626;52.552;13.436;2023-02-28T09:32:00;5.57;;;2.90;;
18983;SDS011;9626;52.552;13.436;2023-02-28T09:34:27;2.93;;;1.90;;
18983;SDS011;9626;52.552;13.436;2023-02-28T09:36:56;3.30;;;2.03;;
18983;SDS011;9626;52.552;13.436;2023-02-28T09:39:22;3.30;;;2.10;;
18983;SDS011;9626;52.552;13.436;2023-02-28T09:41:52;2.10;;;1.67;;
18983;SDS011;9626;52.552;13.436;2023-02-28T09:47:10;5.40;;;2.13;;
18983;SDS011;9626;52.552;13.436;2023-02-28T09:49:45;2.90;;;1.70;;
18983;SDS011;9626;52.552;13.436;2023-02-28T09:52:21;3.73;;;1.73;;
18983;SDS011;9626;52.552;13.436;2023-02-28T09:54:53;2.27;;;1.63;;
18983;SDS011;9626;52.552;13.436;2023-02-28T10:05:22;2.93;;;1.87;;
18983;SDS011;9626;52.552;13.436;2023-02-28T10:08:14;3.13;;;1.83;;
18983;SDS011;9626;52.552;13.436;2023-02-28T10:10:44;2.70;;;1.50;;
18983;SDS011;9626;52.552;13.436;2023-02-28T10:15:39;3.53;;;1.70;;
18983;SDS011;9626;52.552;13.436;2023-02-28T10:18:10;9.17;;;7.10;;
18983;SDS011;9626;52.552;13.436;2023-02-28T10:20:40;7.00;;;2.60;;
18983;SDS011;9626;52.552;13.436;2023-02-28T10:23:14;12.53;;;9.23;;
18983;SDS011;9626;52.552;13.436;2023-02-28T10:25:50;3.10;;;2.17;;
18983;SDS011;9626;52.552;13.436;2023-02-28T10:28:20;4.37;;;1.97;;
18983;SDS011;9626;52.552;13.436;2023-02-28T10:30:51;3.43;;;1.60;;
18983;SDS011;9626;52.552;13.436;2023-02-28T10:33:21;2.27;;;1.27;;
18983;SDS011;9626;52.552;13.436;2023-02-28T10:36:15;8.00;;;1.80;;
18983;SDS011;9626;52.552;13.436;2023-02-28T10:38:43;3.03;;;1.37;;
18983;SDS011;9626;52.552;13.436;2023-02-28T10:41:16;2.07;;;1.50;;
18983;SDS011;9626;52.552;13.436;2023-02-28T10:43:53;9.57;;;1.70;;
18983;SDS011;9626;52.552;13.436;2023-02-28T10:46:39;1.90;;;1.37;;
18983;SDS011;9626;52.552;13.436;2023-02-28T10:49:12;4.27;;;1.40;;
18983;SDS011;9626;52.552;13.436;2023-02-28T10:51:43;4.43;;;1.70;;
18983;SDS011;9626;52.552;13.436;2023-02-28T10:54:16;2.80;;;1.53;;
18983;SDS011;9626;52.552;13.436;2023-02-28T10:57:04;2.70;;;1.90;;
18983;SDS011;9626;52.552;13.436;2023-02-28T10:59:32;3.00;;;1.80;;
18983;SDS011;9626;52.552;13.436;2023-02-28T11:01:58;3.33;;;1.97;;
18983;SDS011;9626;52.552;13.436;2023-02-28T11:06:58;2.97;;;1.50;;
18983;SDS011;9626;52.552;13.436;2023-02-28T11:12:06;2.33;;;1.80;;
18983;SDS011;9626;52.552;13.436;2023-02-28T11:14:36;2.57;;;2.10;;
18983;SDS011;9626;52.552;13.436;2023-02-28T11:17:20;2.37;;;2.10;;
18983;SDS011;9626;52.552;13.436;2023-02-28T11:19:53;2.70;;;1.90;;
18983;SDS011;9626;52.552;13.436;2023-02-28T11:22:27;2.33;;;1.90;;
18983;SDS011;9626;52.552;13.436;2023-02-28T11:24:56;2.60;;;2.10;;
18983;SDS011;9626;52.552;13.436;2023-02-28T11:29:56;5.03;;;2.57;;
18983;SDS011;9626;52.552;13.436;2023-02-28T11:32:30;6.00;;;2.40;;
18983;SDS011;9626;52.552;13.436;2023-02-28T11:35:04;3.77;;;2.67;;
18983;SDS011;9626;52.552;13.436;2023-02-28T11:37:43;4.23;;;2.60;;
18983;SDS011;9626;52.552;13.436;2023-02-28T11:40:18;3.70;;;2.50;;
18983;SDS011;9626;52.552;13.436;2023-02-28T11:42:53;3.97;;;2.03;;
18983;SDS011;9626;52.552;13.436;2023-02-28T11:45:48;4.60;;;2.40;;
18983;SDS011;9626;52.552;13.436;2023-02-28T11:48:42;4.33;;;2.20;;
18983;SDS011;9626;52.552;13.436;2023-02-28T11:56:39;3.53;;;1.97;;
18983;SDS011;9626;52.552;13.436;2023-02-28T12:07:04;3.13;;;2.43;;
18983;SDS011;9626;52.552;13.436;2023-02-28T12:10:13;4.83;;;2.40;;
18983;SDS011;9626;52.552;13.436;2023-02-28T12:15:43;3.73;;;2.53;;
18983;SDS011;9626;52.552;13.436;2023-02-28T12:18:17;9.83;;;3.07;;
18983;SDS011;9626;52.552;13.436;2023-02-28T12:26:30;5.40;;;2.87;;
18983;SDS011;9626;52.552;13.436;2023-02-28T12:29:12;2.97;;;2.33;;
18983;SDS011;9626;52.552;13.436;2023-02-28T12:31:55;5.53;;;2.50;;
18983;SDS011;9626;52.552;13.436;2023-02-28T12:34:31;4.70;;;2.93;;
18983;SDS011;9626;52.552;13.436;2023-02-28T12:37:03;3.50;;;2.33;;
18983;SDS011;9626;52.552;13.436;2023-02-28T12:39:37;7.30;;;2.83;;
18983;SDS011;9626;52.552;13.436;2023-02-28T12:42:13;6.30;;;3.00;;
18983;SDS011;9626;52.552;13.436;2023-02-28T12:44:46;4.40;;;2.90;;
18983;SDS011;9626;52.552;13.436;2023-02-28T12:47:17;4.40;;;2.73;;
18983;SDS011;9626;52.552;13.436;2023-02-28T12:49:58;6.10;;;4.37;;
18983;SDS011;9626;52.552;13.436;2023-02-28T12:57:48;4.63;;;2.83;;
18983;SDS011;9626;52.552;13.436;2023-02-28T13:00:28;4.83;;;3.13;;
18983;SDS011;9626;52.552;13.436;2023-02-28T13:05:39;3.93;;;2.80;;
18983;SDS011;9626;52.552;13.436;2023-02-28T13:10:48;5.93;;;2.77;;
18983;SDS011;9626;52.552;13.436;2023-02-28T13:13:26;4.17;;;2.83;;
18983;SDS011;9626;52.552;13.436;2023-02-28T13:16:03;5.67;;;3.03;;
18983;SDS011;9626;52.552;13.436;2023-02-28T13:21:21;3.10;;;2.60;;
18983;SDS011;9626;52.552;13.436;2023-02-28T13:27:10;4.50;;;2.60;;
18983;SDS011;9626;52.552;13.436;2023-02-28T13:39:50;67.77;;;7.63;;
18983;SDS011;9626;52.552;13.436;2023-02-28T14:06:58;9.53;;;3.10;;
18983;SDS011;9626;52.552;13.436;2023-02-28T14:09:33;9.63;;;3.50;;
18983;SDS011;9626;52.552;13.436;2023-02-28T14:17:52;12.23;;;4.27;;
18983;SDS011;9626;52.552;13.436;2023-02-28T14:20:20;44.33;;;7.20;;
18983;SDS011;9626;52.552;13.436;2023-02-28T14:22:51;4.50;;;3.20;;
18983;SDS011;9626;52.552;13.436;2023-02-28T14:25:33;6.23;;;2.93;;
18983;SDS011;9626;52.552;13.436;2023-02-28T14:30:51;10.60;;;3.27;;
18983;SDS011;9626;52.552;13.436;2023-02-28T14:36:24;134.43;;;17.27;;
18983;SDS011;9626;52.552;13.436;2023-02-28T14:38:55;67.87;;;8.77;;
18983;SDS011;9626;52.552;13.436;2023-02-28T14:41:32;7.83;;;3.00;;
18983;SDS011;9626;52.552;13.436;2023-02-28T14:44:16;3.90;;;2.80;;
18983;SDS011;9626;52.552;13.436;2023-02-28T14:46:43;25.83;;;5.00;;
18983;SDS011;9626;52.552;13.436;2023-02-28T14:49:18;4.23;;;2.63;;
18983;SDS011;9626;52.552;13.436;2023-02-28T14:52:23;3.40;;;2.73;;
18983;SDS011;9626;52.552;13.436;2023-02-28T14:54:53;6.07;;;3.30;;
18983;SDS011;9626;52.552;13.436;2023-02-28T14:57:23;7.30;;;3.23;;
18983;SDS011;9626;52.552;13.436;2023-02-28T14:59:57;5.67;;;2.90;;
18983;SDS011;9626;52.552;13.436;2023-02-28T15:02:25;5.30;;;2.90;;
18983;SDS011;9626;52.552;13.436;2023-02-28T15:04:56;7.90;;;4.13;;
18983;SDS011;9626;52.552;13.436;2023-02-28T15:07:27;5.87;;;3.00;;
18983;SDS011;9626;52.552;13.436;2023-02-28T15:18:23;9.30;;;3.53;;
18983;SDS011;9626;52.552;13.436;2023-02-28T15:21:04;4.37;;;3.10;;
18983;SDS011;9626;52.552;13.436;2023-02-28T15:23:34;5.73;;;3.40;;
18983;SDS011;9626;52.552;13.436;2023-02-28T15:26:02;5.17;;;2.83;;
18983;SDS011;9626;52.552;13.436;2023-02-28T15:28:28;6.73;;;3.30;;
18983;SDS011;9626;52.552;13.436;2023-02-28T15:31:00;6.07;;;3.20;;
18983;SDS011;9626;52.552;13.436;2023-02-28T15:33:31;14.53;;;6.40;;
18983;SDS011;9626;52.552;13.436;2023-02-28T15:38:43;10.73;;;4.50;;
18983;SDS011;9626;52.552;13.436;2023-02-28T15:41:24;7.93;;;3.90;;
18983;SDS011;9626;52.552;13.436;2023-02-28T15:46:54;5.00;;;3.13;;
18983;SDS011;9626;52.552;13.436;2023-02-28T15:49:54;4.93;;;3.53;;
18983;SDS011;9626;52.552;13.436;2023-02-28T15:52:42;5.90;;;3.40;;
18983;SDS011;9626;52.552;13.436;2023-02-28T15:55:20;4.30;;;3.07;;
18983;SDS011;9626;52.552;13.436;2023-02-28T15:57:50;7.87;;;3.20;;
18983;SDS011;9626;52.552;13.436;2023-02-28T16:00:20;5.33;;;3.23;;
18983;SDS011;9626;52.552;13.436;2023-02-28T16:02:48;23.97;;;9.83;;
18983;SDS011;9626;52.552;13.436;2023-02-28T16:07:57;12.60;;;8.13;;
18983;SDS011;9626;52.552;13.436;2023-02-28T16:10:25;15.73;;;10.83;;
18983;SDS011;9626;52.552;13.436;2023-02-28T16:12:54;19.27;;;13.97;;
18983;SDS011;9626;52.552;13.436;2023-02-28T16:15:22;23.07;;;16.73;;
18983;SDS011;9626;52.552;13.436;2023-02-28T16:17:52;50.83;;;35.10;;
18983;SDS011;9626;52.552;13.436;2023-02-28T16:20:20;35.20;;;23.47;;
18983;SDS011;9626;52.552;13.436;2023-02-28T16:22:48;9.50;;;6.77;;
18983;SDS011;9626;52.552;13.436;2023-02-28T16:25:19;10.07;;;6.17;;
18983;SDS011;9626;52.552;13.436;2023-02-28T16:27:49;8.87;;;6.63;;
18983;SDS011;9626;52.552;13.436;2023-02-28T16:30:20;15.07;;;6.90;;
18983;SDS011;9626;52.552;13.436;2023-02-28T16:32:48;9.20;;;6.00;;
18983;SDS011;9626;52.552;13.436;2023-02-28T16:35:15;10.70;;;5.77;;
18983;SDS011;9626;52.552;13.436;2023-02-28T16:37:41;8.80;;;4.83;;
18983;SDS011;9626;52.552;13.436;2023-02-28T16:40:26;6.90;;;4.57;;
18983;SDS011;9626;52.552;13.436;2023-02-28T16:42:55;8.73;;;5.20;;
18983;SDS011;9626;52.552;13.436;2023-02-28T16:45:25;9.83;;;4.43;;
18983;SDS011;9626;52.552;13.436;2023-02-28T16:47:53;9.13;;;5.47;;
18983;SDS011;9626;52.552;13.436;2023-02-28T16:52:47;12.63;;;5.77;;
18983;SDS011;9626;52.552;13.436;2023-02-28T16:55:15;12.23;;;6.70;;
18983;SDS011;9626;52.552;13.436;2023-02-28T16:57:41;8.07;;;5.00;;
18983;SDS011;9626;52.552;13.436;2023-02-28T17:00:10;6.80;;;4.23;;
18983;SDS011;9626;52.552;13.436;2023-02-28T17:02:38;8.80;;;5.20;;
18983;SDS011;9626;52.552;13.436;2023-02-28T17:05:04;9.03;;;6.47;;
18983;SDS011;9626;52.552;13.436;2023-02-28T17:07:32;7.53;;;5.10;;
18983;SDS011;9626;52.552;13.436;2023-02-28T17:09:58;8.07;;;4.40;;
18983;SDS011;9626;52.552;13.436;2023-02-28T17:12:26;6.93;;;3.83;;
18983;SDS011;9626;52.552;13.436;2023-02-28T17:14:52;8.10;;;5.10;;
18983;SDS011;9626;52.552;13.436;2023-02-28T17:17:20;13.43;;;4.40;;
18983;SDS011;9626;52.552;13.436;2023-02-28T17:19:47;8.40;;;3.93;;
18983;SDS011;9626;52.552;13.436;2023-02-28T17:22:13;8.00;;;4.30;;
18983;SDS011;9626;52.552;13.436;2023-02-28T17:24:39;8.87;;;3.90;;
18983;SDS011;9626;52.552;13.436;2023-02-28T17:27:06;7.23;;;4.03;;
18983;SDS011;9626;52.552;13.436;2023-02-28T17:29:36;9.27;;;5.20;;
18983;SDS011;9626;52.552;13.436;2023-02-28T17:32:03;10.17;;;5.23;;
18983;SDS011;9626;52.552;13.436;2023-02-28T17:34:29;8.73;;;5.50;;